createdAt,value
2019-05-15T00:02:10.965Z,98035.39
2019-05-15T00:07:30.258Z,98042.72
2019-05-15T00:12:52.226Z,98056.00
2019-05-15T00:18:14.157Z,98030.23
2019-05-15T00:23:35.578Z,98024.73
2019-05-15T00:29:11.140Z,98030.07
2019-05-15T00:34:21.020Z,98052.67
2019-05-15T00:39:42.775Z,98036.48
2019-05-15T00:45:04.818Z,98059.38
2019-05-15T00:50:28.673Z,98044.05
2019-05-15T00:55:50.046Z,98040.94
2019-05-15T01:01:11.609Z,98025.64
2019-05-15T01:06:33.434Z,98003.70
2019-05-15T01:11:54.751Z,97999.05
2019-05-15T01:17:18.492Z,97986.41
2019-05-15T01:22:40.531Z,97978.47
2019-05-15T01:28:02.254Z,97996.05
2019-05-15T01:33:24.118Z,97970.75
2019-05-15T01:38:47.965Z,97986.89
2019-05-15T01:44:09.826Z,97973.15
2019-05-15T01:49:31.647Z,97974.14
2019-05-15T01:54:53.027Z,97977.66
2019-05-15T02:00:15.490Z,97970.53
2019-05-15T02:05:39.005Z,97964.58
2019-05-15T02:11:00.721Z,97947.33
2019-05-15T02:16:22.600Z,97944.99
2019-05-15T02:21:44.486Z,97937.16
2019-05-15T02:27:08.871Z,97939.03
2019-05-15T02:32:30.371Z,97927.20
2019-05-15T02:37:52.318Z,97933.85
2019-05-15T02:43:13.813Z,97927.02
2019-05-15T02:48:35.790Z,97927.54
2019-05-15T02:53:58.588Z,97933.02
2019-05-15T02:59:20.167Z,97928.33
2019-05-15T03:04:41.945Z,97928.34
2019-05-15T03:10:03.673Z,97910.66
2019-05-15T03:15:28.667Z,97926.36
2019-05-15T03:20:50.171Z,97937.21
2019-05-15T03:26:12.059Z,97957.05
2019-05-15T03:31:50.769Z,97953.05
2019-05-15T03:37:02.489Z,97949.40
2019-05-15T03:42:21.134Z,97950.74
2019-05-15T03:47:42.902Z,97975.69
2019-05-15T03:53:04.417Z,97972.22
2019-05-15T03:58:28.797Z,98010.69
2019-05-15T04:03:49.879Z,97988.99
2019-05-15T04:09:11.505Z,97938.43
2019-05-15T04:14:33.462Z,97916.44
2019-05-15T04:19:55.395Z,97942.27
2019-05-15T04:25:19.126Z,97973.49
2019-05-15T04:30:40.927Z,97957.39
2019-05-15T04:36:02.564Z,97957.22
2019-05-15T04:41:24.074Z,97984.81
2019-05-15T04:46:45.643Z,97993.22
2019-05-15T04:52:10.179Z,97966.75
2019-05-15T04:57:34.086Z,97944.06
2019-05-15T05:02:54.642Z,97969.20
2019-05-15T05:08:19.720Z,97965.57
2019-05-15T05:13:39.790Z,97965.59
2019-05-15T05:19:01.325Z,97960.77
2019-05-15T05:24:23.164Z,97971.58
2019-05-15T05:29:44.793Z,97983.88
2019-05-15T05:35:08.461Z,97987.28
2019-05-15T05:40:30.451Z,97984.67
2019-05-15T05:45:52.521Z,97992.83
2019-05-15T05:51:14.516Z,97992.83
2019-05-15T05:56:37.804Z,97992.07
2019-05-15T06:01:59.700Z,97983.41
2019-05-15T06:07:22.724Z,97951.98
2019-05-15T06:12:44.418Z,97951.36
2019-05-15T06:18:08.144Z,97984.36
2019-05-15T06:23:34.706Z,97976.55
2019-05-15T06:28:53.491Z,97985.33
2019-05-15T06:34:14.752Z,97991.89
2019-05-15T06:39:36.394Z,97982.45
2019-05-15T06:44:58.944Z,97991.16
2019-05-15T06:50:34.555Z,98012.63
2019-05-15T06:55:58.310Z,98012.02
2019-05-15T07:01:19.968Z,98029.19
2019-05-15T07:06:41.572Z,98030.25
2019-05-15T07:12:03.772Z,98022.81
2019-05-15T07:17:25.413Z,98030.05
2019-05-15T07:22:49.082Z,98050.66
2019-05-15T07:28:10.543Z,98037.33
2019-05-15T07:33:39.743Z,98025.36
2019-05-15T07:38:57.952Z,97998.67
2019-05-15T07:44:19.683Z,97989.75
2019-05-15T07:49:41.314Z,98005.03
2019-05-15T07:55:03.475Z,97997.83
2019-05-15T08:00:28.891Z,97999.39
2019-05-15T08:05:58.623Z,98012.61
2019-05-15T08:11:20.620Z,98007.34
2019-05-15T08:16:39.618Z,98018.06
2019-05-15T08:22:01.747Z,98046.18
2019-05-15T08:27:23.832Z,98044.14
2019-05-15T08:32:49.069Z,98096.89
2019-05-15T08:38:09.239Z,98131.80
2019-05-15T08:43:31.679Z,98174.70
2019-05-15T08:48:53.195Z,98208.90
2019-05-15T08:54:14.811Z,98148.89
2019-05-15T08:59:38.155Z,98096.80
2019-05-15T09:05:00.079Z,98087.33
2019-05-15T09:10:21.681Z,98072.63
2019-05-15T09:15:43.178Z,98081.14
2019-05-15T09:21:05.199Z,98078.74
2019-05-15T09:26:28.377Z,98119.41
2019-05-15T09:31:50.291Z,98142.73
2019-05-15T09:37:12.004Z,98176.66
2019-05-15T09:42:33.651Z,98198.50
2019-05-15T09:47:55.500Z,98220.16
2019-05-15T09:53:18.813Z,98228.13
2019-05-15T09:58:40.685Z,98197.98
2019-05-15T10:04:02.539Z,98178.87
2019-05-15T10:09:23.969Z,98182.76
2019-05-15T10:14:48.899Z,98172.32
2019-05-15T10:20:09.867Z,98135.36
2019-05-15T10:25:31.778Z,98098.31
2019-05-15T10:30:53.714Z,98083.66
2019-05-15T10:36:15.466Z,98061.81
2019-05-15T10:41:38.858Z,98064.27
2019-05-15T10:47:00.894Z,98065.52
2019-05-15T10:52:22.981Z,98051.50
2019-05-15T10:57:44.919Z,98058.60
2019-05-15T11:03:08.710Z,98065.30
2019-05-15T11:08:30.296Z,98100.19
2019-05-15T11:13:51.655Z,98094.87
2019-05-15T11:19:13.515Z,98080.48
2019-05-15T11:24:38.362Z,98068.92
2019-05-15T11:29:59.147Z,98045.22
2019-05-15T11:35:20.635Z,98054.84
2019-05-15T11:40:42.324Z,98055.16
2019-05-15T11:46:04.636Z,98050.66
2019-05-15T11:51:28.880Z,98051.14
2019-05-15T11:56:50.219Z,98054.50
2019-05-15T12:02:12.055Z,98046.53
2019-05-15T12:07:33.781Z,98044.98
2019-05-15T12:12:55.463Z,98045.39
2019-05-15T12:18:16.787Z,98041.28
2019-05-15T12:23:38.878Z,98010.34
2019-05-15T12:29:00.919Z,98005.23
2019-05-15T12:34:22.570Z,97989.96
2019-05-15T12:39:43.736Z,97987.00
2019-05-15T13:01:21.449Z,98011.88
2019-05-15T13:06:53.147Z,98007.27
2019-05-15T13:12:04.986Z,98006.83
2019-05-15T13:17:28.949Z,98002.59
2019-05-15T13:28:11.856Z,97994.54
2019-05-15T13:33:33.658Z,97981.76
2019-05-15T13:38:55.200Z,97993.08
2019-05-15T13:44:18.769Z,97983.81
2019-05-15T13:49:41.820Z,97986.77
2019-05-15T13:55:03.615Z,97984.69
2019-05-15T14:00:28.761Z,97984.79
2019-05-15T14:05:49.988Z,97976.62
2019-05-15T14:11:11.700Z,97973.05
2019-05-15T14:16:33.700Z,97973.37
2019-05-15T14:21:55.362Z,97976.32
2019-05-15T14:27:19.408Z,97988.35
2019-05-15T14:32:41.235Z,97978.72
2019-05-15T14:38:06.716Z,97978.89
2019-05-15T14:43:26.026Z,97988.34
2019-05-15T14:48:49.018Z,97997.22
2019-05-15T14:54:11.455Z,98004.50
2019-05-15T14:59:33.190Z,98005.38
2019-05-15T15:04:54.741Z,97982.21
2019-05-15T15:10:19.717Z,97987.34
2019-05-15T15:15:42.229Z,97971.52
2019-05-15T15:21:04.037Z,97967.03
2019-05-15T15:26:25.388Z,97974.48
2019-05-15T15:31:49.421Z,97962.25
2019-05-15T15:37:11.360Z,97964.05
2019-05-15T15:42:33.180Z,97974.22
2019-05-15T15:47:54.864Z,97972.53
2019-05-15T15:53:16.046Z,97972.43
2019-05-15T15:58:37.983Z,97976.17
2019-05-15T16:03:59.723Z,97983.31
2019-05-15T16:09:21.411Z,97984.93
2019-05-15T16:14:42.829Z,97993.70
2019-05-15T16:20:05.265Z,97992.23
2019-05-15T16:25:28.819Z,98003.27
2019-05-15T16:30:51.728Z,98009.73
2019-05-15T16:36:13.684Z,98025.28
2019-05-15T16:41:35.348Z,98041.41
2019-05-15T16:46:58.846Z,98060.02
2019-05-15T16:52:20.789Z,98069.41
2019-05-15T16:57:42.953Z,98061.17
2019-05-15T17:03:13.717Z,98064.64
2019-05-15T17:08:29.495Z,98075.45
2019-05-15T17:13:52.874Z,98090.22
2019-05-15T17:19:14.549Z,98103.89
2019-05-15T17:24:36.545Z,98111.86
2019-05-15T17:29:59.886Z,98104.48
2019-05-15T17:35:21.462Z,98113.60
2019-05-15T17:40:43.150Z,98119.37
2019-05-15T17:46:05.215Z,98104.34
2019-05-15T17:51:27.715Z,98106.45
2019-05-15T17:56:49.715Z,98104.58
2019-05-15T18:02:11.466Z,98105.50
2019-05-15T18:07:33.266Z,98083.39
2019-05-15T18:12:54.746Z,98086.91
2019-05-15T18:18:18.535Z,98086.91
2019-05-15T18:23:40.221Z,98098.42
2019-05-15T18:29:02.290Z,98098.42
2019-05-15T18:34:24.166Z,98111.57
2019-05-15T18:39:48.173Z,98111.57
2019-05-15T18:45:10.731Z,98131.73
2019-05-15T18:50:32.481Z,98131.73
2019-05-15T18:55:54.419Z,98134.17
2019-05-15T19:01:17.798Z,98145.62
2019-05-15T19:06:39.791Z,98159.55
2019-05-15T19:12:01.107Z,98175.12
2019-05-15T19:17:23.398Z,98165.04
2019-05-15T19:22:44.755Z,98165.04
2019-05-15T19:28:08.518Z,98185.07
2019-05-15T19:33:36.930Z,98177.98
2019-05-15T19:38:54.027Z,98158.98
2019-05-15T19:44:17.838Z,98158.98
2019-05-15T19:49:42.429Z,98153.53
2019-05-15T19:55:04.438Z,98163.36
2019-05-15T20:00:28.518Z,98155.87
2019-05-15T20:05:50.206Z,98127.16
2019-05-15T20:11:12.031Z,98095.64
2019-05-15T20:16:33.904Z,98097.47
2019-05-15T20:21:55.858Z,98084.97
2019-05-15T20:27:18.787Z,98081.77
2019-05-15T20:32:40.785Z,98099.76
2019-05-15T20:38:02.663Z,98081.91
2019-05-15T20:43:24.304Z,98080.75
2019-05-15T20:48:45.728Z,98064.59
2019-05-15T20:54:08.381Z,98067.78
2019-05-15T20:59:30.417Z,98026.11
2019-05-15T21:04:52.332Z,98019.95
2019-05-15T21:10:14.238Z,98000.80
2019-05-15T21:15:36.207Z,98002.62
2019-05-15T21:20:58.011Z,98007.75
2019-05-15T21:26:19.790Z,98018.10
2019-05-15T21:31:41.553Z,98034.11
2019-05-15T21:37:03.267Z,98036.08
2019-05-15T21:42:24.690Z,98022.87
2019-05-15T21:47:46.333Z,98020.65
2019-05-15T21:53:07.964Z,98003.47
2019-05-15T21:58:29.743Z,98010.09
2019-05-15T22:03:52.934Z,98053.94
2019-05-15T22:09:18.338Z,98070.63
2019-05-15T22:14:40.411Z,98078.00
2019-05-15T22:20:02.147Z,98080.67
2019-05-15T22:25:23.977Z,98070.36
2019-05-15T22:30:47.836Z,98067.84
2019-05-15T22:36:09.503Z,98064.70
2019-05-15T22:41:31.375Z,98095.45
2019-05-15T22:46:53.151Z,98106.80
2019-05-15T22:52:14.844Z,98106.80
2019-05-15T22:57:38.858Z,98107.61
2019-05-15T23:03:00.766Z,98107.62
2019-05-15T23:08:22.847Z,98119.14
2019-05-15T23:13:45.358Z,98120.48
2019-05-15T23:19:08.156Z,98107.98
2019-05-15T23:24:29.918Z,98107.16
2019-05-15T23:29:51.562Z,98116.98
2019-05-15T23:35:13.551Z,98116.82
2019-05-15T23:40:35.258Z,98118.66
2019-05-15T23:45:58.755Z,98102.91
2019-05-15T23:51:20.381Z,98097.75
2019-05-15T23:56:42.293Z,98102.94
